N547VH KLGA-KBOS
Flight info
| Callsign | N547VH |
|---|---|
| Flight time | 0h 44m |
| Altitude | 21000 |
| Route | MERIT ROBUC3 |
| Aircraft | HDJT/L-SABDGRWY/H |
Departure
| Time | 2026-05-04 22:33 |
|---|---|
| Airport | LaGuardia Airport (KLGA) |
Arrival
| Time | 2026-05-04 23:18 |
|---|---|
| Airport | Boston Logan International Airport (KBOS) |
| Time | Latitude | Longitude | Altitude | Speed | Heading |
|---|---|---|---|---|---|
| 2026-05-04 22:18 | 40.77708 | -73.88074 | 12 ft | 0 kts | 304° |
| 2026-05-04 22:29 | 40.77715 | -73.88084 | 12 ft | 5 kts | 313° |
| 2026-05-04 22:30 | 40.77745 | -73.88108 | 12 ft | 1 kts | 344° |
| 2026-05-04 22:30 | 40.77749 | -73.88109 | 12 ft | 1 kts | 347° |
| 2026-05-04 22:30 | 40.77762 | -73.88105 | 12 ft | 5 kts | 37° |
| 2026-05-04 22:30 | 40.77800 | -73.88043 | 12 ft | 13 kts | 50° |
| 2026-05-04 22:31 | 40.77875 | -73.87970 | 12 ft | 14 kts | 32° |
| 2026-05-04 22:31 | 40.77958 | -73.87902 | 12 ft | 14 kts | 32° |
| 2026-05-04 22:31 | 40.78026 | -73.87842 | 12 ft | 6 kts | 31° |
| 2026-05-04 22:31 | 40.78068 | -73.87833 | 12 ft | 7 kts | 345° |
| 2026-05-04 22:32 | 40.78117 | -73.87849 | 12 ft | 6 kts | 347° |
| 2026-05-04 22:32 | 40.78135 | -73.87854 | 12 ft | 0 kts | 348° |
| 2026-05-04 22:32 | 40.78166 | -73.87862 | 9 ft | 10 kts | 351° |
| 2026-05-04 22:33 | 40.78210 | -73.87814 | 10 ft | 13 kts | 105° |
| 2026-05-04 22:33 | 40.78133 | -73.87649 | 9 ft | 42 kts | 123° |
| 2026-05-04 22:33 | 40.77797 | -73.86958 | 52 ft | 125 kts | 126° |
| 2026-05-04 22:33 | 40.77408 | -73.85942 | 683 ft | 133 kts | 121° |
| 2026-05-04 22:34 | 40.76957 | -73.84696 | 1026 ft | 168 kts | 120° |
| 2026-05-04 22:34 | 40.76429 | -73.83172 | 1492 ft | 199 kts | 114° |
| 2026-05-04 22:34 | 40.76407 | -73.81223 | 2101 ft | 226 kts | 77° |
| 2026-05-04 22:34 | 40.76933 | -73.79323 | 3125 ft | 224 kts | 63° |
| 2026-05-04 22:35 | 40.78013 | -73.77752 | 3689 ft | 241 kts | 32° |
| 2026-05-04 22:35 | 40.79402 | -73.76501 | 4644 ft | 243 kts | 32° |
| 2026-05-04 22:35 | 40.80824 | -73.75278 | 5380 ft | 256 kts | 26° |
| 2026-05-04 22:35 | 40.82480 | -73.74063 | 5698 ft | 284 kts | 26° |
| 2026-05-04 22:36 | 40.84210 | -73.72830 | 6701 ft | 278 kts | 23° |
| 2026-05-04 22:36 | 40.85906 | -73.71764 | 7962 ft | 266 kts | 21° |
| 2026-05-04 22:36 | 40.87533 | -73.70661 | 9148 ft | 261 kts | 30° |
| 2026-05-04 22:36 | 40.88948 | -73.69183 | 10296 ft | 257 kts | 37° |
| 2026-05-04 22:37 | 40.90274 | -73.67620 | 11274 ft | 258 kts | 37° |
| 2026-05-04 22:37 | 40.91651 | -73.66059 | 12139 ft | 262 kts | 34° |
| 2026-05-04 22:37 | 40.93064 | -73.64506 | 13048 ft | 266 kts | 34° |
| 2026-05-04 22:37 | 40.94478 | -73.62934 | 13911 ft | 271 kts | 34° |
| 2026-05-04 22:38 | 40.95927 | -73.61309 | 14738 ft | 274 kts | 34° |
| 2026-05-04 22:38 | 40.97392 | -73.59678 | 15583 ft | 277 kts | 34° |
| 2026-05-04 22:38 | 40.98872 | -73.58029 | 16443 ft | 280 kts | 34° |
| 2026-05-04 22:38 | 41.00365 | -73.56358 | 17314 ft | 282 kts | 34° |
| 2026-05-04 22:39 | 41.01875 | -73.54669 | 18192 ft | 286 kts | 34° |
| 2026-05-04 22:39 | 41.03406 | -73.52955 | 18968 ft | 289 kts | 34° |
| 2026-05-04 22:39 | 41.04944 | -73.51233 | 19774 ft | 290 kts | 34° |
| 2026-05-04 22:39 | 41.06496 | -73.49494 | 20588 ft | 293 kts | 33° |
| 2026-05-04 22:40 | 41.08102 | -73.47705 | 20883 ft | 314 kts | 34° |
| 2026-05-04 22:40 | 41.09819 | -73.45790 | 20877 ft | 337 kts | 34° |
| 2026-05-04 22:40 | 41.11658 | -73.43717 | 20874 ft | 354 kts | 35° |
| 2026-05-04 22:40 | 41.13547 | -73.41582 | 20880 ft | 359 kts | 35° |
| 2026-05-04 22:41 | 41.15451 | -73.39440 | 20881 ft | 359 kts | 35° |
| 2026-05-04 22:41 | 41.17357 | -73.37303 | 20883 ft | 359 kts | 35° |
| 2026-05-04 22:41 | 41.19264 | -73.35154 | 20905 ft | 359 kts | 35° |
| 2026-05-04 22:41 | 41.21177 | -73.32995 | 20895 ft | 360 kts | 35° |
| 2026-05-04 22:42 | 41.23079 | -73.30853 | 20890 ft | 363 kts | 35° |
| 2026-05-04 22:42 | 41.25011 | -73.28673 | 20884 ft | 365 kts | 35° |
| 2026-05-04 22:42 | 41.26951 | -73.26480 | 20883 ft | 367 kts | 35° |
| 2026-05-04 22:42 | 41.28899 | -73.24277 | 20884 ft | 368 kts | 35° |
| 2026-05-04 22:43 | 41.30857 | -73.22063 | 20885 ft | 369 kts | 35° |
| 2026-05-04 22:43 | 41.32815 | -73.19846 | 20884 ft | 370 kts | 35° |
| 2026-05-04 22:43 | 41.34764 | -73.17605 | 20885 ft | 372 kts | 38° |
| 2026-05-04 22:43 | 41.36471 | -73.14978 | 20909 ft | 378 kts | 50° |
| 2026-05-04 22:44 | 41.37801 | -73.11932 | 20902 ft | 384 kts | 61° |
| 2026-05-04 22:44 | 41.38693 | -73.08560 | 20908 ft | 389 kts | 73° |
| 2026-05-04 22:44 | 41.39148 | -73.04995 | 20907 ft | 392 kts | 79° |
| 2026-05-04 22:44 | 41.39523 | -73.01443 | 20908 ft | 392 kts | 79° |
| 2026-05-04 22:45 | 41.39914 | -72.97876 | 20911 ft | 386 kts | 79° |
| 2026-05-04 22:45 | 41.40658 | -72.90882 | 20894 ft | 377 kts | 79° |
| 2026-05-04 22:45 | 41.41029 | -72.87452 | 20892 ft | 373 kts | 79° |
| 2026-05-04 22:46 | 41.41397 | -72.84037 | 20893 ft | 370 kts | 79° |
| 2026-05-04 22:46 | 41.41757 | -72.80645 | 20893 ft | 368 kts | 79° |
| 2026-05-04 22:46 | 41.42113 | -72.77279 | 20892 ft | 366 kts | 79° |
| 2026-05-04 22:46 | 41.42469 | -72.73922 | 20899 ft | 364 kts | 79° |
| 2026-05-04 22:47 | 41.42822 | -72.70575 | 20901 ft | 363 kts | 79° |
| 2026-05-04 22:47 | 41.43172 | -72.67246 | 20904 ft | 362 kts | 79° |
| 2026-05-04 22:47 | 41.43519 | -72.63932 | 20906 ft | 362 kts | 79° |
| 2026-05-04 22:47 | 41.43866 | -72.60616 | 20908 ft | 361 kts | 79° |
| 2026-05-04 22:48 | 41.44209 | -72.57329 | 20912 ft | 363 kts | 79° |
| 2026-05-04 22:48 | 41.44557 | -72.53981 | 20912 ft | 367 kts | 79° |
| 2026-05-04 22:48 | 41.44909 | -72.50584 | 20912 ft | 373 kts | 79° |
| 2026-05-04 22:48 | 41.45265 | -72.47143 | 20910 ft | 377 kts | 79° |
| 2026-05-04 22:49 | 41.45623 | -72.43661 | 20907 ft | 380 kts | 79° |
| 2026-05-04 22:49 | 41.45983 | -72.40149 | 20904 ft | 383 kts | 79° |
| 2026-05-04 22:49 | 41.46344 | -72.36615 | 20903 ft | 385 kts | 79° |
| 2026-05-04 22:49 | 41.46705 | -72.33078 | 20903 ft | 387 kts | 79° |
| 2026-05-04 22:50 | 41.47068 | -72.29519 | 20900 ft | 388 kts | 79° |
| 2026-05-04 22:50 | 41.47425 | -72.25990 | 20897 ft | 389 kts | 79° |
| 2026-05-04 22:50 | 41.47825 | -72.22425 | 20899 ft | 388 kts | 74° |
| 2026-05-04 22:50 | 41.48651 | -72.19024 | 20895 ft | 383 kts | 62° |
| 2026-05-04 22:51 | 41.49801 | -72.15863 | 20885 ft | 376 kts | 59° |
| 2026-05-04 22:51 | 41.50948 | -72.12747 | 20885 ft | 372 kts | 59° |
| 2026-05-04 22:51 | 41.52071 | -72.09650 | 20892 ft | 369 kts | 60° |
| 2026-05-04 22:51 | 41.53195 | -72.06583 | 20893 ft | 366 kts | 59° |
| 2026-05-04 22:52 | 41.54321 | -72.03533 | 20894 ft | 365 kts | 59° |
| 2026-05-04 22:52 | 41.55431 | -72.00479 | 20745 ft | 367 kts | 60° |
| 2026-05-04 22:52 | 41.56110 | -71.98392 | 20562 ft | 368 kts | 64° |
| 2026-05-04 22:52 | 41.57344 | -71.94193 | 20169 ft | 364 kts | 65° |
| 2026-05-04 22:53 | 41.58277 | -71.91044 | 19868 ft | 364 kts | 64° |
| 2026-05-04 22:53 | 41.58905 | -71.88969 | 19663 ft | 363 kts | 64° |
| 2026-05-04 22:53 | 41.59851 | -71.85839 | 19354 ft | 363 kts | 64° |
| 2026-05-04 22:53 | 41.60781 | -71.82693 | 19054 ft | 363 kts | 65° |
| 2026-05-04 22:54 | 41.61699 | -71.79554 | 18748 ft | 363 kts | 65° |
| 2026-05-04 22:54 | 41.62625 | -71.76419 | 18445 ft | 362 kts | 65° |
| 2026-05-04 22:54 | 41.63553 | -71.73288 | 18123 ft | 362 kts | 65° |
| 2026-05-04 22:54 | 41.64474 | -71.70158 | 17793 ft | 361 kts | 65° |
| 2026-05-04 22:55 | 41.65389 | -71.67039 | 17476 ft | 359 kts | 65° |
| 2026-05-04 22:55 | 41.66297 | -71.63947 | 17293 ft | 355 kts | 65° |
| 2026-05-04 22:55 | 41.67198 | -71.60879 | 17037 ft | 353 kts | 65° |
| 2026-05-04 22:55 | 41.68094 | -71.57826 | 16743 ft | 352 kts | 66° |
| 2026-05-04 22:56 | 41.68988 | -71.54776 | 16433 ft | 352 kts | 66° |
| 2026-05-04 22:56 | 41.69880 | -71.51722 | 16161 ft | 352 kts | 66° |
| 2026-05-04 22:56 | 41.70771 | -71.48674 | 15869 ft | 352 kts | 66° |
| 2026-05-04 22:56 | 41.71660 | -71.45624 | 15575 ft | 352 kts | 66° |
| 2026-05-04 22:57 | 41.72586 | -71.42647 | 15275 ft | 350 kts | 59° |
| 2026-05-04 22:57 | 41.73807 | -71.39839 | 14982 ft | 348 kts | 57° |
| 2026-05-04 22:57 | 41.75026 | -71.37033 | 14691 ft | 348 kts | 58° |
| 2026-05-04 22:57 | 41.76225 | -71.34204 | 14396 ft | 348 kts | 58° |
| 2026-05-04 22:58 | 41.77413 | -71.31381 | 14108 ft | 348 kts | 58° |
| 2026-05-04 22:58 | 41.78614 | -71.28564 | 13829 ft | 347 kts | 58° |
| 2026-05-04 22:58 | 41.79814 | -71.25760 | 13528 ft | 346 kts | 58° |
| 2026-05-04 22:58 | 41.80991 | -71.22987 | 13223 ft | 346 kts | 58° |
| 2026-05-04 22:59 | 41.82173 | -71.20197 | 12919 ft | 343 kts | 58° |
| 2026-05-04 22:59 | 41.83346 | -71.17429 | 12626 ft | 340 kts | 58° |
| 2026-05-04 22:59 | 41.84501 | -71.14704 | 12327 ft | 332 kts | 58° |
| 2026-05-04 22:59 | 41.85630 | -71.12035 | 12048 ft | 325 kts | 58° |
| 2026-05-04 23:00 | 41.86732 | -71.09430 | 11739 ft | 319 kts | 58° |
| 2026-05-04 23:00 | 41.87836 | -71.06873 | 11456 ft | 314 kts | 56° |
| 2026-05-04 23:00 | 41.88965 | -71.04395 | 11162 ft | 309 kts | 56° |
| 2026-05-04 23:00 | 41.90040 | -71.01932 | 10874 ft | 304 kts | 57° |
| 2026-05-04 23:01 | 41.91082 | -70.99471 | 10588 ft | 301 kts | 57° |
| 2026-05-04 23:01 | 41.92116 | -70.97058 | 10301 ft | 297 kts | 56° |
| 2026-05-04 23:01 | 41.93150 | -70.94671 | 10022 ft | 294 kts | 56° |
| 2026-05-04 23:01 | 41.94174 | -70.92299 | 9724 ft | 292 kts | 56° |
| 2026-05-04 23:02 | 41.95184 | -70.89945 | 9424 ft | 290 kts | 56° |
| 2026-05-04 23:02 | 41.96188 | -70.87607 | 9104 ft | 288 kts | 57° |
| 2026-05-04 23:02 | 41.97190 | -70.85274 | 8796 ft | 287 kts | 57° |
| 2026-05-04 23:02 | 41.98175 | -70.82978 | 8507 ft | 286 kts | 57° |
| 2026-05-04 23:03 | 41.99167 | -70.80663 | 8216 ft | 286 kts | 57° |
| 2026-05-04 23:03 | 42.00154 | -70.78357 | 8080 ft | 280 kts | 57° |
| 2026-05-04 23:03 | 42.01172 | -70.76118 | 8078 ft | 281 kts | 48° |
| 2026-05-04 23:03 | 42.02488 | -70.74153 | 8062 ft | 286 kts | 43° |
| 2026-05-04 23:04 | 42.03826 | -70.72165 | 8064 ft | 286 kts | 44° |
| 2026-05-04 23:04 | 42.05128 | -70.70182 | 8063 ft | 286 kts | 44° |
| 2026-05-04 23:04 | 42.06458 | -70.68183 | 8064 ft | 287 kts | 44° |
| 2026-05-04 23:04 | 42.07807 | -70.66172 | 8064 ft | 289 kts | 44° |
| 2026-05-04 23:05 | 42.09154 | -70.64157 | 8062 ft | 289 kts | 43° |
| 2026-05-04 23:05 | 42.10665 | -70.62417 | 8012 ft | 285 kts | 28° |
| 2026-05-04 23:05 | 42.12409 | -70.61264 | 7806 ft | 280 kts | 14° |
| 2026-05-04 23:05 | 42.14281 | -70.60655 | 7558 ft | 275 kts | 6° |
| 2026-05-04 23:06 | 42.16157 | -70.60148 | 7324 ft | 274 kts | 6° |
| 2026-05-04 23:06 | 42.18019 | -70.59617 | 7047 ft | 274 kts | 6° |
| 2026-05-04 23:06 | 42.19890 | -70.59097 | 6777 ft | 274 kts | 6° |
| 2026-05-04 23:06 | 42.21759 | -70.58581 | 6515 ft | 273 kts | 6° |
| 2026-05-04 23:07 | 42.23626 | -70.58057 | 6251 ft | 273 kts | 6° |
| 2026-05-04 23:07 | 42.25488 | -70.57534 | 5974 ft | 272 kts | 6° |
| 2026-05-04 23:07 | 42.27312 | -70.57022 | 5717 ft | 272 kts | 6° |
| 2026-05-04 23:07 | 42.29173 | -70.56532 | 5455 ft | 270 kts | 1° |
| 2026-05-04 23:08 | 42.31028 | -70.56535 | 5195 ft | 263 kts | 347° |
| 2026-05-04 23:08 | 42.32784 | -70.57106 | 5036 ft | 255 kts | 334° |
| 2026-05-04 23:08 | 42.34357 | -70.58157 | 5038 ft | 249 kts | 321° |
| 2026-05-04 23:08 | 42.35684 | -70.59601 | 5039 ft | 245 kts | 311° |
| 2026-05-04 23:09 | 42.36903 | -70.61226 | 5026 ft | 246 kts | 310° |
| 2026-05-04 23:09 | 42.38125 | -70.62814 | 5027 ft | 246 kts | 311° |
| 2026-05-04 23:09 | 42.39363 | -70.64431 | 5026 ft | 247 kts | 311° |
| 2026-05-04 23:09 | 42.40602 | -70.66062 | 5019 ft | 248 kts | 310° |
| 2026-05-04 23:10 | 42.41838 | -70.67691 | 5012 ft | 248 kts | 311° |
| 2026-05-04 23:10 | 42.43064 | -70.69299 | 4947 ft | 242 kts | 311° |
| 2026-05-04 23:10 | 42.44265 | -70.70868 | 4569 ft | 244 kts | 311° |
| 2026-05-04 23:10 | 42.45490 | -70.72467 | 4061 ft | 243 kts | 311° |
| 2026-05-04 23:11 | 42.46697 | -70.74036 | 3556 ft | 237 kts | 311° |
| 2026-05-04 23:11 | 42.47893 | -70.75582 | 3055 ft | 237 kts | 310° |
| 2026-05-04 23:11 | 42.49079 | -70.77105 | 2551 ft | 237 kts | 311° |
| 2026-05-04 23:11 | 42.50196 | -70.78759 | 2054 ft | 234 kts | 296° |
| 2026-05-04 23:12 | 42.50842 | -70.80655 | 1998 ft | 209 kts | 286° |
| 2026-05-04 23:12 | 42.51365 | -70.82449 | 2000 ft | 201 kts | 285° |
| 2026-05-04 23:12 | 42.51874 | -70.84187 | 1999 ft | 196 kts | 285° |
| 2026-05-04 23:12 | 42.52376 | -70.85887 | 2001 ft | 193 kts | 285° |
| 2026-05-04 23:13 | 42.52864 | -70.87542 | 1998 ft | 188 kts | 282° |
| 2026-05-04 23:13 | 42.52870 | -70.89219 | 2000 ft | 176 kts | 247° |
| 2026-05-04 23:13 | 42.52247 | -70.90629 | 1999 ft | 174 kts | 235° |
| 2026-05-04 23:13 | 42.51535 | -70.91953 | 1997 ft | 174 kts | 234° |
| 2026-05-04 23:14 | 42.50731 | -70.93164 | 1998 ft | 174 kts | 220° |
| 2026-05-04 23:14 | 42.49684 | -70.94003 | 2002 ft | 176 kts | 208° |
| 2026-05-04 23:14 | 42.48548 | -70.94634 | 2000 ft | 174 kts | 206° |
| 2026-05-04 23:14 | 42.47431 | -70.95201 | 1997 ft | 169 kts | 205° |
| 2026-05-04 23:15 | 42.46328 | -70.95749 | 1867 ft | 171 kts | 204° |
| 2026-05-04 23:15 | 42.45245 | -70.96269 | 1653 ft | 158 kts | 204° |
| 2026-05-04 23:15 | 42.44240 | -70.96758 | 1448 ft | 151 kts | 205° |
| 2026-05-04 23:15 | 42.43276 | -70.97225 | 1251 ft | 145 kts | 205° |
| 2026-05-04 23:16 | 42.42367 | -70.97611 | 1063 ft | 129 kts | 201° |
| 2026-05-04 23:16 | 42.41551 | -70.97961 | 907 ft | 117 kts | 203° |
| 2026-05-04 23:16 | 42.40812 | -70.98338 | 787 ft | 110 kts | 205° |
| 2026-05-04 23:16 | 42.40129 | -70.98699 | 674 ft | 104 kts | 203° |
| 2026-05-04 23:17 | 42.39470 | -70.99050 | 525 ft | 100 kts | 203° |
| 2026-05-04 23:17 | 42.38849 | -70.99361 | 373 ft | 89 kts | 200° |
| 2026-05-04 23:17 | 42.38281 | -70.99636 | 242 ft | 89 kts | 201° |
| 2026-05-04 23:17 | 42.37682 | -70.99937 | 126 ft | 93 kts | 200° |
| 2026-05-04 23:18 | 42.37099 | -71.00219 | 33 ft | 83 kts | 199° |
| 2026-05-04 23:18 | 42.36646 | -71.00437 | 20 ft | 54 kts | 200° |
| 2026-05-04 23:18 | 42.36380 | -71.00571 | 20 ft | 24 kts | 199° |
| 2026-05-04 23:18 | 42.36291 | -71.00634 | 20 ft | 8 kts | 246° |
| 2026-05-04 23:19 | 42.36317 | -71.00679 | 20 ft | 8 kts | 351° |
| 2026-05-04 23:19 | 42.36399 | -71.00703 | 20 ft | 14 kts | 331° |
| 2026-05-04 23:19 | 42.36447 | -71.00815 | 20 ft | 15 kts | 292° |
| 2026-05-04 23:19 | 42.36487 | -71.00946 | 20 ft | 15 kts | 292° |
| 2026-05-04 23:20 | 42.36528 | -71.01084 | 20 ft | 16 kts | 292° |
| 2026-05-04 23:20 | 42.36565 | -71.01189 | 20 ft | 8 kts | 314° |
| 2026-05-04 23:20 | 42.36603 | -71.01207 | 20 ft | 4 kts | 18° |
| 2026-05-04 23:20 | 42.36633 | -71.01190 | 20 ft | 6 kts | 20° |
| 2026-05-04 23:21 | 42.36675 | -71.01169 | 20 ft | 8 kts | 19° |
| 2026-05-04 23:21 | 42.36749 | -71.01141 | 20 ft | 14 kts | 1° |
| 2026-05-04 23:21 | 42.36833 | -71.01204 | 20 ft | 15 kts | 315° |
| 2026-05-04 23:21 | 42.36909 | -71.01304 | 20 ft | 16 kts | 315° |
| 2026-05-04 23:22 | 42.36989 | -71.01412 | 20 ft | 17 kts | 315° |
| 2026-05-04 23:22 | 42.37075 | -71.01528 | 20 ft | 18 kts | 315° |
| 2026-05-04 23:22 | 42.37162 | -71.01644 | 20 ft | 18 kts | 314° |
| 2026-05-04 23:22 | 42.37250 | -71.01763 | 20 ft | 18 kts | 315° |
| 2026-05-04 23:23 | 42.37335 | -71.01878 | 20 ft | 17 kts | 315° |
| 2026-05-04 23:23 | 42.37412 | -71.01982 | 20 ft | 12 kts | 315° |
| 2026-05-04 23:23 | 42.37448 | -71.02046 | 20 ft | 8 kts | 269° |
| 2026-05-04 23:23 | 42.37433 | -71.02088 | 20 ft | 0 kts | 242° |
| 2026-05-04 23:24 | 42.37432 | -71.02098 | 20 ft | 2 kts | 271° |
| 2026-05-04 23:24 | 42.37435 | -71.02111 | 20 ft | 1 kts | 307° |
| 2026-05-04 23:24 | 42.37446 | -71.02127 | 20 ft | 0 kts | 314° |